Time;durP1;ratioP1;P1;durP2;ratioP2;P2;SDS_P1;SDS_P2;PMS_P1;PMS_P2;Temp;Humidity;BMP_temperature;BMP_pressure;BME280_temperature;BME280_humidity;BME280_pressure;Samples;Min_cycle;Max_cycle;Signal;HPM_P1;HPM_P2
2023/12/18 00:01:11;;;;;;;41.30;17.92;;;-0.40;99.90;;;;;;5088921;28;20123;-65
2023/12/18 00:03:36;;;;;;;40.03;17.90;;;-0.40;99.90;;;;;;5088641;28;20138;-67
2023/12/18 00:06:03;;;;;;;42.92;18.30;;;-0.30;99.90;;;;;;5088205;28;20525;-69
2023/12/18 00:08:28;;;;;;;41.90;17.77;;;-0.30;99.90;;;;;;5089351;28;20028;-71
2023/12/18 00:10:54;;;;;;;36.95;16.13;;;-0.30;99.90;;;;;;5090588;28;20039;-66
2023/12/18 00:13:20;;;;;;;41.88;17.65;;;-0.30;99.90;;;;;;5088497;28;20067;-74
2023/12/18 00:15:45;;;;;;;37.17;15.80;;;-0.30;99.90;;;;;;5088321;28;20440;-65
2023/12/18 00:18:11;;;;;;;40.35;16.73;;;-0.40;99.90;;;;;;5088732;28;20027;-65
2023/12/18 00:20:36;;;;;;;34.92;16.27;;;-0.50;99.90;;;;;;5091145;28;20046;-66
2023/12/18 00:23:02;;;;;;;44.58;16.90;;;-0.50;99.90;;;;;;5092017;28;20108;-67
2023/12/18 00:25:28;;;;;;;33.47;14.70;;;-0.50;99.90;;;;;;5088069;28;20102;-69
2023/12/18 00:27:54;;;;;;;36.03;15.25;;;-0.50;99.90;;;;;;5088819;28;20043;-70
2023/12/18 00:30:19;;;;;;;31.08;13.55;;;-0.50;99.90;;;;;;5088966;28;20077;-68
2023/12/18 00:32:45;;;;;;;36.30;15.05;;;-0.50;99.90;;;;;;5087798;28;20043;-65
2023/12/18 00:35:11;;;;;;;41.78;16.48;;;-0.50;99.90;;;;;;5088571;28;20494;-68
2023/12/18 00:37:36;;;;;;;34.85;14.85;;;-0.60;99.90;;;;;;5087769;28;20031;-67
2023/12/18 00:40:02;;;;;;;38.97;15.98;;;-0.60;99.90;;;;;;5090048;28;20032;-64
2023/12/18 00:42:28;;;;;;;40.05;15.05;;;-0.70;99.90;;;;;;5087857;28;20020;-64
2023/12/18 00:44:53;;;;;;;41.42;17.35;;;-0.70;99.90;;;;;;5095273;28;20587;-69
2023/12/18 00:47:19;;;;;;;39.15;16.75;;;-0.70;99.90;;;;;;5088423;28;20032;-65
2023/12/18 00:49:45;;;;;;;36.13;16.15;;;-0.60;99.90;;;;;;5087669;28;20834;-64
2023/12/18 00:52:10;;;;;;;40.38;17.83;;;-0.60;99.90;;;;;;5088639;28;20038;-64
2023/12/18 00:54:36;;;;;;;40.40;17.30;;;-0.60;99.90;;;;;;5091086;28;20016;-69
2023/12/18 00:57:01;;;;;;;40.13;16.55;;;-0.60;99.90;;;;;;5088663;28;20085;-66
2023/12/18 00:59:27;;;;;;;39.78;17.27;;;-0.60;99.90;;;;;;5093409;28;20493;-67
2023/12/18 01:01:53;;;;;;;40.78;16.63;;;-0.60;99.90;;;;;;5099642;28;20039;-67
2023/12/18 01:04:18;;;;;;;35.97;16.40;;;-0.60;99.90;;;;;;5088183;28;20044;-66
2023/12/18 01:06:44;;;;;;;38.72;16.40;;;-0.60;99.90;;;;;;5077345;28;20124;-64
2023/12/18 01:09:12;;;;;;;36.88;16.30;;;-0.70;99.90;;;;;;5086708;28;20032;-66
2023/12/18 01:11:38;;;;;;;38.10;16.42;;;-0.60;99.90;;;;;;5075120;28;20039;-71
2023/12/18 01:14:04;;;;;;;39.13;16.23;;;-0.60;99.90;;;;;;5087126;28;20502;-67
2023/12/18 01:16:30;;;;;;;38.80;16.63;;;-0.60;99.90;;;;;;5087483;28;20449;-65
2023/12/18 01:18:55;;;;;;;39.92;16.77;;;-0.60;99.90;;;;;;5073151;28;20507;-66
2023/12/18 01:21:21;;;;;;;36.00;15.85;;;-0.60;99.90;;;;;;5091900;28;20470;-66
2023/12/18 01:23:47;;;;;;;33.75;15.57;;;-0.60;99.90;;;;;;5091794;28;20529;-65
2023/12/18 01:26:12;;;;;;;38.15;15.93;;;-0.70;99.90;;;;;;5092277;28;20074;-65
2023/12/18 01:28:40;;;;;;;35.50;14.68;;;-0.70;99.90;;;;;;5081269;28;20736;-67
2023/12/18 01:31:07;;;;;;;34.65;15.75;;;-0.70;99.90;;;;;;5079098;28;20032;-66
2023/12/18 01:33:33;;;;;;;38.13;16.30;;;-0.80;99.90;;;;;;5091630;28;20102;-67
2023/12/18 01:35:59;;;;;;;39.08;16.90;;;-0.80;99.90;;;;;;5091891;28;20032;-67
2023/12/18 01:38:24;;;;;;;36.97;16.80;;;-0.70;99.90;;;;;;5092139;28;20055;-75
2023/12/18 01:40:50;;;;;;;38.50;16.23;;;-0.70;99.90;;;;;;5091173;28;20103;-65
2023/12/18 01:43:26;;;;;;;36.05;15.18;;;-0.80;99.90;;;;;;5091400;28;20036;-68
2023/12/18 01:45:56;;;;;;;31.40;13.65;;;-0.90;99.90;;;;;;5091160;28;20028;-65
2023/12/18 01:48:22;;;;;;;33.00;14.27;;;-1.00;99.90;;;;;;5073582;28;20419;-64
2023/12/18 01:50:47;;;;;;;32.00;14.25;;;-1.10;99.90;;;;;;5080761;28;20668;-64
2023/12/18 01:53:13;;;;;;;31.42;14.40;;;-1.10;99.90;;;;;;5112432;28;20042;-70
2023/12/18 01:55:39;;;;;;;32.05;14.70;;;-1.10;99.90;;;;;;5105403;28;20028;-65
2023/12/18 01:58:05;;;;;;;33.40;14.70;;;-1.10;99.90;;;;;;5071503;28;20378;-64
2023/12/18 02:00:31;;;;;;;34.55;14.50;;;-1.10;99.90;;;;;;5080302;28;20122;-67
2023/12/18 02:02:59;;;;;;;40.08;16.02;;;-1.00;99.90;;;;;;5093944;28;20032;-71
2023/12/18 02:05:24;;;;;;;37.70;15.48;;;-1.00;99.90;;;;;;5111966;28;20035;-65
2023/12/18 02:07:50;;;;;;;38.45;16.65;;;-1.00;99.90;;;;;;5111324;28;20530;-65
2023/12/18 02:10:16;;;;;;;35.45;15.98;;;-1.00;99.90;;;;;;5107732;28;20028;-68
2023/12/18 02:12:42;;;;;;;40.92;16.48;;;-0.90;99.90;;;;;;5090911;28;20036;-64
2023/12/18 02:15:08;;;;;;;38.67;15.98;;;-0.90;99.90;;;;;;5104999;28;20733;-64
2023/12/18 02:17:33;;;;;;;40.50;16.80;;;-0.90;99.90;;;;;;5111120;28;20032;-69
2023/12/18 02:20:06;;;;;;;40.08;17.13;;;-0.90;99.90;;;;;;5104118;28;20470;-66
2023/12/18 02:22:50;;;;;;;38.97;16.90;;;-0.80;99.90;;;;;;5091305;28;20036;-65
2023/12/18 02:25:17;;;;;;;39.40;16.38;;;-0.90;99.90;;;;;;5095501;28;20753;-64
2023/12/18 02:27:44;;;;;;;35.35;15.80;;;-0.90;99.90;;;;;;5102375;28;20032;-66
2023/12/18 02:30:15;;;;;;;35.13;16.33;;;-0.90;99.90;;;;;;5096435;28;20036;-64
2023/12/18 02:32:40;;;;;;;37.97;16.33;;;-1.00;99.90;;;;;;5104336;28;20477;-64
2023/12/18 02:35:07;;;;;;;41.63;16.80;;;-1.00;99.90;;;;;;5091108;28;20118;-68
2023/12/18 02:37:32;;;;;;;41.50;16.88;;;-1.00;99.90;;;;;;5090188;28;20024;-71
2023/12/18 02:39:58;;;;;;;40.63;16.60;;;-1.00;99.90;;;;;;5091680;28;20527;-69
2023/12/18 02:42:24;;;;;;;34.40;15.55;;;-1.00;99.90;;;;;;5090535;28;20120;-67
2023/12/18 02:44:49;;;;;;;36.75;16.33;;;-1.00;99.90;;;;;;5090019;28;20096;-65
2023/12/18 02:47:15;;;;;;;33.42;15.10;;;-0.90;99.90;;;;;;5095205;28;20115;-65
2023/12/18 02:49:40;;;;;;;38.75;15.07;;;-1.00;99.90;;;;;;5110446;28;20062;-65
2023/12/18 02:52:06;;;;;;;33.95;15.10;;;-1.10;99.90;;;;;;5111187;28;20036;-67
2023/12/18 02:54:32;;;;;;;32.08;14.05;;;-1.20;99.90;;;;;;5102932;28;20031;-74
2023/12/18 02:56:57;;;;;;;36.88;15.10;;;-1.20;99.90;;;;;;5090625;28;20035;-65
2023/12/18 02:59:23;;;;;;;41.50;14.75;;;-1.30;99.90;;;;;;5085246;28;20056;-68
2023/12/18 03:01:48;;;;;;;33.30;14.38;;;-1.30;99.90;;;;;;5068177;28;20112;-66
2023/12/18 03:04:18;;;;;;;36.65;15.52;;;-1.30;99.90;;;;;;5052410;28;20048;-65
2023/12/18 03:06:45;;;;;;;37.17;16.38;;;-1.20;99.90;;;;;;5064465;28;20071;-67
2023/12/18 03:09:11;;;;;;;38.45;16.08;;;-1.20;99.90;;;;;;5067202;28;20174;-67
2023/12/18 03:11:36;;;;;;;34.50;15.40;;;-1.10;99.90;;;;;;5049633;28;20473;-68
2023/12/18 03:14:02;;;;;;;41.15;17.42;;;-1.10;99.90;;;;;;5069254;28;20438;-64
2023/12/18 03:16:27;;;;;;;33.97;15.32;;;-1.10;99.90;;;;;;5057964;28;20028;-65
2023/12/18 03:18:53;;;;;;;36.25;16.48;;;-1.10;99.90;;;;;;5069035;28;20032;-66
2023/12/18 03:21:18;;;;;;;36.40;15.52;;;-1.10;99.90;;;;;;5050571;28;20175;-67
2023/12/18 03:23:44;;;;;;;40.17;16.20;;;-1.10;99.90;;;;;;5069294;28;20032;-65
2023/12/18 03:26:10;;;;;;;36.65;15.20;;;-1.10;99.90;;;;;;5059692;28;20063;-65
2023/12/18 03:28:35;;;;;;;35.85;15.43;;;-1.20;99.90;;;;;;5049200;28;20040;-68
2023/12/18 03:31:01;;;;;;;32.20;14.55;;;-1.30;99.90;;;;;;5057411;28;20039;-65
2023/12/18 03:33:26;;;;;;;32.72;15.15;;;-1.40;99.90;;;;;;5069957;28;20360;-66
2023/12/18 03:35:52;;;;;;;33.28;15.43;;;-1.40;99.90;;;;;;5064668;28;20106;-67
2023/12/18 03:38:17;;;;;;;35.88;15.73;;;-1.30;99.90;;;;;;5070157;28;20055;-64
2023/12/18 03:40:43;;;;;;;33.97;15.18;;;-1.30;99.90;;;;;;5069121;28;20033;-70
2023/12/18 03:43:09;;;;;;;41.55;16.58;;;-1.20;99.90;;;;;;5064828;28;20037;-69
2023/12/18 03:45:34;;;;;;;35.05;16.02;;;-1.30;99.90;;;;;;5052683;28;20024;-75
2023/12/18 03:48:00;;;;;;;35.40;15.85;;;-1.20;99.90;;;;;;5050881;28;20033;-64
2023/12/18 03:50:26;;;;;;;33.28;14.82;;;-1.20;99.90;;;;;;5067622;28;20033;-66
2023/12/18 03:52:51;;;;;;;41.65;16.15;;;-1.30;99.90;;;;;;5042511;28;20044;-64
2023/12/18 03:55:17;;;;;;;38.22;15.30;;;-1.30;99.90;;;;;;5051682;28;20036;-65
2023/12/18 03:57:44;;;;;;;31.83;14.05;;;-1.40;99.90;;;;;;5066838;28;20130;-68
2023/12/18 04:00:10;;;;;;;34.50;15.57;;;-1.40;99.90;;;;;;5072277;28;20087;-64
2023/12/18 04:02:36;;;;;;;35.30;14.48;;;-1.40;99.90;;;;;;5087937;28;20051;-75
2023/12/18 04:05:01;;;;;;;34.63;14.55;;;-1.40;99.90;;;;;;5088108;28;20050;-66
2023/12/18 04:07:27;;;;;;;39.25;15.80;;;-1.40;99.90;;;;;;5083558;28;20025;-69
2023/12/18 04:09:52;;;;;;;39.55;14.52;;;-1.40;99.90;;;;;;5077875;28;20091;-69
2023/12/18 04:12:18;;;;;;;33.50;15.00;;;-1.40;99.90;;;;;;5082863;28;20031;-66
2023/12/18 04:14:43;;;;;;;31.98;14.82;;;-1.30;99.90;;;;;;5067056;28;20469;-69
2023/12/18 04:17:09;;;;;;;33.40;14.80;;;-1.30;99.90;;;;;;5088861;28;20028;-66
2023/12/18 04:19:35;;;;;;;35.38;15.35;;;-1.30;99.90;;;;;;5088783;28;20103;-76
2023/12/18 04:22:00;;;;;;;33.75;15.07;;;-1.30;99.90;;;;;;5087486;28;20042;-64
2023/12/18 04:24:26;;;;;;;29.75;14.43;;;-1.40;99.90;;;;;;5088319;28;20028;-69
2023/12/18 04:26:52;;;;;;;35.92;14.55;;;-1.40;99.90;;;;;;5076471;28;20423;-65
2023/12/18 04:29:17;;;;;;;36.08;16.08;;;-1.40;99.90;;;;;;5070590;28;20518;-65
2023/12/18 04:31:43;;;;;;;33.10;14.93;;;-1.40;99.90;;;;;;5088108;28;20094;-68
2023/12/18 04:34:08;;;;;;;36.92;16.15;;;-1.40;99.90;;;;;;5087879;28;20031;-66
2023/12/18 04:36:41;;;;;;;37.33;16.33;;;-1.40;99.90;;;;;;5084090;28;20047;-67
2023/12/18 04:39:06;;;;;;;34.20;14.60;;;-1.50;99.90;;;;;;5070482;28;20028;-68
2023/12/18 04:41:32;;;;;;;38.42;15.60;;;-1.60;99.90;;;;;;5088634;28;20020;-66
2023/12/18 04:43:58;;;;;;;35.60;15.57;;;-1.50;99.90;;;;;;5069291;28;20024;-64
2023/12/18 04:46:24;;;;;;;36.28;14.60;;;-1.50;99.90;;;;;;5087982;28;20028;-67
2023/12/18 04:48:50;;;;;;;37.17;15.55;;;-1.50;99.90;;;;;;5087864;28;20024;-65
2023/12/18 04:51:16;;;;;;;36.25;15.10;;;-1.40;99.90;;;;;;5088373;28;20090;-69
2023/12/18 04:53:41;;;;;;;33.13;15.65;;;-1.40;99.90;;;;;;5087168;28;20471;-65
2023/12/18 04:56:07;;;;;;;34.28;14.77;;;-1.40;99.90;;;;;;5084872;28;20031;-62
2023/12/18 04:58:36;;;;;;;34.63;14.30;;;-1.40;99.90;;;;;;5063719;28;20035;-63
2023/12/18 05:01:04;;;;;;;33.13;15.00;;;-1.50;99.90;;;;;;5085168;28;20052;-62
2023/12/18 05:03:30;;;;;;;35.17;14.57;;;-1.50;99.90;;;;;;5088995;28;20073;-62
2023/12/18 05:05:56;;;;;;;34.90;14.10;;;-1.60;99.90;;;;;;5087387;28;20394;-63
2023/12/18 05:08:21;;;;;;;34.75;14.45;;;-1.60;99.90;;;;;;5078715;28;20389;-62
2023/12/18 05:10:47;;;;;;;36.58;15.13;;;-1.50;99.90;;;;;;5087652;28;20028;-65
2023/12/18 05:13:12;;;;;;;33.20;14.48;;;-1.50;99.90;;;;;;5088603;28;20032;-62
2023/12/18 05:15:38;;;;;;;34.53;14.25;;;-1.50;99.90;;;;;;5087223;28;20737;-69
2023/12/18 05:18:05;;;;;;;36.65;14.70;;;-1.50;99.90;;;;;;5084461;28;20115;-64
2023/12/18 05:20:31;;;;;;;39.50;15.65;;;-1.50;99.90;;;;;;5068206;28;20028;-64
2023/12/18 05:22:56;;;;;;;32.88;14.80;;;-1.50;99.90;;;;;;5067449;28;20752;-65
2023/12/18 05:25:22;;;;;;;37.42;15.60;;;-1.60;99.90;;;;;;5072087;28;20108;-62
2023/12/18 05:27:48;;;;;;;32.08;14.10;;;-1.60;99.90;;;;;;5081173;28;20533;-62
2023/12/18 05:30:13;;;;;;;38.17;15.40;;;-1.60;99.90;;;;;;5080359;28;20043;-65
2023/12/18 05:32:39;;;;;;;36.65;14.82;;;-1.60;99.90;;;;;;5063714;28;20041;-71
2023/12/18 05:35:05;;;;;;;33.70;14.40;;;-1.60;99.90;;;;;;5084250;28;20021;-63
2023/12/18 05:37:30;;;;;;;35.72;14.52;;;-1.60;99.90;;;;;;5087078;28;20446;-63
2023/12/18 05:39:56;;;;;;;34.60;13.93;;;-1.70;99.90;;;;;;5067430;28;20135;-64
2023/12/18 05:42:22;;;;;;;35.70;15.45;;;-1.70;99.90;;;;;;5064273;28;20032;-63
2023/12/18 05:44:47;;;;;;;34.22;13.90;;;-1.80;99.90;;;;;;5080088;28;20028;-67
2023/12/18 05:47:13;;;;;;;35.17;14.13;;;-1.70;99.90;;;;;;5086689;28;20055;-65
2023/12/18 05:49:38;;;;;;;38.10;15.25;;;-1.70;99.90;;;;;;5088158;28;20505;-65
2023/12/18 05:52:04;;;;;;;35.67;15.20;;;-1.70;99.90;;;;;;5077178;28;20470;-62
2023/12/18 05:54:30;;;;;;;33.22;13.70;;;-1.60;99.90;;;;;;5079193;28;20028;-62
2023/12/18 05:56:56;;;;;;;39.55;14.80;;;-1.50;99.90;;;;;;5073029;28;20074;-64
2023/12/18 05:59:22;;;;;;;34.25;14.38;;;-1.50;99.90;;;;;;5087871;28;20048;-65
2023/12/18 06:01:47;;;;;;;35.42;14.80;;;-1.50;99.90;;;;;;5055279;28;20482;-63
2023/12/18 06:04:13;;;;;;;30.73;14.55;;;-1.50;99.90;;;;;;5059676;28;20131;-64
2023/12/18 06:06:38;;;;;;;33.97;14.52;;;-1.60;99.90;;;;;;5088915;28;20429;-65
2023/12/18 06:09:04;;;;;;;36.13;14.15;;;-1.70;99.90;;;;;;5090752;28;20367;-65
2023/12/18 06:11:30;;;;;;;37.85;15.07;;;-1.70;99.90;;;;;;5091081;28;20074;-64
2023/12/18 06:13:57;;;;;;;33.67;15.13;;;-1.80;99.90;;;;;;5079143;28;20116;-63
2023/12/18 06:16:23;;;;;;;40.50;15.50;;;-1.70;99.90;;;;;;5075762;28;20634;-64
2023/12/18 06:18:48;;;;;;;36.97;15.93;;;-1.70;99.90;;;;;;5077186;28;20078;-66
2023/12/18 06:21:14;;;;;;;35.95;16.00;;;-1.60;99.90;;;;;;5087422;28;20035;-65
2023/12/18 06:23:43;;;;;;;36.38;15.15;;;-1.70;99.90;;;;;;5090474;28;20078;-65
2023/12/18 06:26:09;;;;;;;36.60;15.45;;;-1.60;99.90;;;;;;5079753;28;20123;-65
2023/12/18 06:28:34;;;;;;;47.10;17.55;;;-1.60;99.90;;;;;;5074062;28;20514;-65
2023/12/18 06:31:00;;;;;;;38.75;16.05;;;-1.70;99.90;;;;;;5088122;28;20402;-64
2023/12/18 06:33:26;;;;;;;42.50;16.40;;;-1.70;99.90;;;;;;5070960;28;20037;-64
2023/12/18 06:35:51;;;;;;;41.88;17.55;;;-1.70;99.90;;;;;;5073507;28;20027;-64
2023/12/18 06:38:17;;;;;;;37.25;16.05;;;-1.80;99.90;;;;;;5091099;28;20062;-63
2023/12/18 06:40:43;;;;;;;48.70;18.17;;;-2.00;99.90;;;;;;5082999;28;20050;-69
2023/12/18 06:43:09;;;;;;;45.55;17.88;;;-2.00;99.90;;;;;;5072621;28;20098;-65
2023/12/18 06:45:35;;;;;;;46.60;19.48;;;-2.00;99.90;;;;;;5052527;28;20422;-64
2023/12/18 06:48:00;;;;;;;45.58;17.48;;;-2.00;99.90;;;;;;5070183;28;20037;-63
2023/12/18 06:50:26;;;;;;;40.97;16.67;;;-2.00;99.90;;;;;;5070808;28;20482;-64
2023/12/18 06:52:53;;;;;;;40.90;17.25;;;-2.00;99.90;;;;;;5071793;28;20082;-64
2023/12/18 06:55:19;;;;;;;43.10;17.88;;;-2.00;99.90;;;;;;5078587;28;20096;-65
2023/12/18 06:57:44;;;;;;;40.58;16.60;;;-1.90;99.90;;;;;;5082848;28;20067;-68
2023/12/18 07:00:11;;;;;;;41.97;16.75;;;-2.00;99.90;;;;;;5077269;28;20134;-64
2023/12/18 07:02:36;;;;;;;32.38;14.55;;;-2.00;99.90;;;;;;5079756;28;20093;-64
2023/12/18 07:05:02;;;;;;;35.33;13.90;;;-1.90;99.90;;;;;;5069662;28;20021;-63
2023/12/18 07:07:28;;;;;;;31.77;13.75;;;-1.90;99.90;;;;;;5087337;28;20545;-65
2023/12/18 07:09:54;;;;;;;34.95;13.63;;;-1.90;99.90;;;;;;5089647;28;20035;-64
2023/12/18 07:12:19;;;;;;;35.88;15.25;;;-1.80;99.90;;;;;;5090090;28;20036;-64
2023/12/18 07:14:45;;;;;;;40.58;15.85;;;-1.80;99.90;;;;;;5068951;28;20702;-71
2023/12/18 07:17:10;;;;;;;39.30;16.42;;;-1.90;99.90;;;;;;5069723;28;20043;-65
2023/12/18 07:19:42;;;;;;;34.97;15.75;;;-1.90;99.90;;;;;;5084708;28;20028;-65
2023/12/18 07:22:07;;;;;;;34.80;15.20;;;-1.90;99.90;;;;;;5071178;28;20031;-64
2023/12/18 07:24:33;;;;;;;35.55;15.10;;;-2.00;99.90;;;;;;5069761;28;20119;-67
2023/12/18 07:26:59;;;;;;;36.13;15.02;;;-2.10;99.90;;;;;;5069525;28;20036;-66
2023/12/18 07:29:25;;;;;;;32.55;14.82;;;-2.10;99.90;;;;;;5078332;28;20035;-66
2023/12/18 07:31:50;;;;;;;41.83;15.65;;;-2.00;99.90;;;;;;5068990;28;20036;-66
2023/12/18 07:34:16;;;;;;;37.60;15.65;;;-1.90;99.90;;;;;;5072247;28;20028;-64
2023/12/18 07:36:41;;;;;;;37.10;14.70;;;-1.90;99.90;;;;;;5084867;28;20424;-61
2023/12/18 07:39:07;;;;;;;35.55;15.07;;;-1.90;99.90;;;;;;5077710;28;20608;-61
2023/12/18 07:41:33;;;;;;;44.63;18.17;;;-1.80;99.90;;;;;;5069173;28;20028;-67
2023/12/18 07:43:58;;;;;;;40.25;16.90;;;-1.80;99.90;;;;;;5056058;28;20028;-65
2023/12/18 07:46:26;;;;;;;45.88;19.63;;;-1.70;99.90;;;;;;5086715;28;20031;-64
2023/12/18 07:48:53;;;;;;;42.55;17.42;;;-1.60;99.90;;;;;;5077420;28;20020;-64
2023/12/18 07:51:19;;;;;;;41.97;17.00;;;-1.70;99.90;;;;;;5073460;28;20025;-65
2023/12/18 07:53:44;;;;;;;52.33;20.70;;;-1.70;99.90;;;;;;5080471;28;20109;-64
2023/12/18 07:56:10;;;;;;;67.72;27.88;;;-1.70;99.90;;;;;;5078913;28;20552;-63
2023/12/18 07:58:35;;;;;;;50.67;21.17;;;-1.60;99.90;;;;;;5087643;28;20024;-63
2023/12/18 08:01:03;;;;;;;41.65;17.85;;;-1.60;99.90;;;;;;5058226;28;20537;-63
2023/12/18 08:03:29;;;;;;;44.63;18.52;;;-1.70;99.90;;;;;;5058620;28;20048;-64
2023/12/18 08:05:55;;;;;;;45.67;19.33;;;-1.70;99.90;;;;;;5068211;28;20359;-66
2023/12/18 08:08:20;;;;;;;47.05;19.02;;;-1.70;99.90;;;;;;5065204;28;20048;-66
2023/12/18 08:10:46;;;;;;;48.35;20.60;;;-1.60;99.90;;;;;;5062502;28;20320;-65
2023/12/18 08:13:12;;;;;;;52.35;21.38;;;-1.60;99.90;;;;;;5055281;28;20085;-63
2023/12/18 08:15:38;;;;;;;50.35;22.02;;;-1.60;99.90;;;;;;5055441;28;20032;-63
2023/12/18 08:18:04;;;;;;;50.60;23.13;;;-1.50;99.90;;;;;;5055788;28;20056;-64
2023/12/18 08:20:30;;;;;;;56.60;26.13;;;-1.40;99.90;;;;;;5065985;28;20036;-64
2023/12/18 08:22:55;;;;;;;62.63;30.95;;;-1.30;99.90;;;;;;5060464;28;20044;-66
2023/12/18 08:25:21;;;;;;;49.05;22.75;;;-1.30;99.90;;;;;;5060869;28;20044;-65
2023/12/18 08:27:47;;;;;;;49.00;22.25;;;-1.20;99.90;;;;;;5033619;28;20061;-64
2023/12/18 08:30:13;;;;;;;54.28;23.30;;;-1.20;99.90;;;;;;5062372;28;20037;-65
2023/12/18 08:32:39;;;;;;;44.50;19.42;;;-1.10;99.90;;;;;;5067642;28;20430;-65
2023/12/18 08:35:08;;;;;;;39.65;17.25;;;-1.00;99.90;;;;;;5066649;28;20021;-65
2023/12/18 08:37:34;;;;;;;38.50;16.73;;;-0.80;99.90;;;;;;5065207;28;20064;-67
2023/12/18 08:39:59;;;;;;;36.13;16.33;;;-0.70;99.90;;;;;;5065966;28;20064;-67
2023/12/18 08:42:25;;;;;;;38.15;16.42;;;-0.60;99.90;;;;;;5059575;28;20513;-66
2023/12/18 08:44:51;;;;;;;37.03;16.52;;;-0.40;99.90;;;;;;5056790;28;20033;-73
2023/12/18 08:47:17;;;;;;;35.47;15.95;;;-0.30;99.90;;;;;;5067118;28;20024;-68
2023/12/18 08:49:42;;;;;;;39.95;16.80;;;-0.10;99.90;;;;;;5061052;28;20119;-64
2023/12/18 08:52:09;;;;;;;33.78;15.43;;;0.00;99.90;;;;;;5051927;28;20427;-66
2023/12/18 08:54:34;;;;;;;39.10;16.55;;;0.20;99.90;;;;;;5048369;28;20032;-64
2023/12/18 08:57:00;;;;;;;42.67;19.80;;;0.20;99.90;;;;;;5049235;28;20032;-63
2023/12/18 08:59:26;;;;;;;53.47;23.85;;;0.30;99.90;;;;;;5035667;28;20522;-64
2023/12/18 09:01:52;;;;;;;37.55;17.65;;;0.30;99.90;;;;;;5069385;28;20067;-72
2023/12/18 09:04:17;;;;;;;34.75;14.82;;;0.50;99.90;;;;;;5070201;28;20058;-64
2023/12/18 09:06:43;;;;;;;32.08;15.98;;;0.60;99.90;;;;;;5070947;28;20033;-68
2023/12/18 09:09:10;;;;;;;44.72;20.00;;;0.60;99.90;;;;;;5069197;28;20061;-67
2023/12/18 09:11:35;;;;;;;46.80;20.05;;;0.70;99.90;;;;;;5068772;28;20413;-64
2023/12/18 09:14:03;;;;;;;46.85;22.65;;;0.80;99.90;;;;;;5078122;28;20032;-66
2023/12/18 09:16:29;;;;;;;66.53;28.15;;;0.90;99.90;;;;;;5050229;28;20161;-66
2023/12/18 09:18:54;;;;;;;55.90;25.17;;;1.00;99.90;;;;;;5072285;28;20024;-69
2023/12/18 09:21:20;;;;;;;58.53;25.30;;;1.20;99.90;;;;;;5071942;28;20020;-64
2023/12/18 09:23:46;;;;;;;60.53;25.75;;;1.30;99.90;;;;;;5088219;28;20032;-64
2023/12/18 09:26:13;;;;;;;55.17;24.35;;;1.40;99.90;;;;;;5087692;28;20024;-64
2023/12/18 09:28:39;;;;;;;58.40;24.52;;;1.40;99.90;;;;;;5087150;28;20032;-64
2023/12/18 09:31:05;;;;;;;47.92;22.33;;;1.50;99.90;;;;;;5083661;28;20051;-66
2023/12/18 09:33:33;;;;;;;50.33;21.00;;;1.80;99.90;;;;;;5088241;28;20039;-68
2023/12/18 09:36:02;;;;;;;42.30;19.13;;;1.90;99.90;;;;;;5077881;28;20044;-65
2023/12/18 09:38:28;;;;;;;41.83;19.98;;;2.10;99.90;;;;;;5070635;28;20064;-66
2023/12/18 09:40:54;;;;;;;39.75;19.38;;;2.40;99.90;;;;;;5072027;28;20067;-73
2023/12/18 09:43:23;;;;;;;48.50;19.70;;;2.60;99.90;;;;;;5071267;28;20037;-64
2023/12/18 09:45:49;;;;;;;44.13;21.83;;;2.80;99.90;;;;;;5075905;28;20031;-66
2023/12/18 09:48:16;;;;;;;41.55;20.00;;;2.90;99.90;;;;;;5059340;28;20020;-67
2023/12/18 09:50:45;;;;;;;46.83;20.63;;;3.00;99.90;;;;;;5081881;28;20101;-64
2023/12/18 09:53:13;;;;;;;38.00;17.08;;;3.10;99.90;;;;;;5086220;28;20465;-67
2023/12/18 09:55:40;;;;;;;42.13;19.83;;;3.20;99.90;;;;;;5091637;28;20525;-68
2023/12/18 09:58:06;;;;;;;41.38;18.00;;;3.40;99.90;;;;;;5090729;28;20035;-68
2023/12/18 10:00:32;;;;;;;37.22;17.38;;;3.60;99.90;;;;;;5079346;28;20053;-65
2023/12/18 10:02:59;;;;;;;36.17;15.90;;;3.80;99.90;;;;;;5071574;28;20036;-71
2023/12/18 10:05:26;;;;;;;35.45;14.85;;;3.90;99.90;;;;;;5066935;28;20025;-66
2023/12/18 10:07:53;;;;;;;33.65;15.30;;;3.90;99.90;;;;;;5089168;28;20063;-66
2023/12/18 10:10:19;;;;;;;32.42;14.98;;;3.90;99.90;;;;;;5090290;28;20143;-66
2023/12/18 10:12:46;;;;;;;28.20;13.80;;;4.00;99.90;;;;;;5054572;28;20461;-67
2023/12/18 10:15:12;;;;;;;25.98;12.27;;;4.20;99.90;;;;;;5083681;28;20056;-65
2023/12/18 10:17:38;;;;;;;23.35;11.73;;;4.40;99.90;;;;;;5072165;28;20141;-65
2023/12/18 10:20:06;;;;;;;24.65;12.57;;;4.70;99.90;;;;;;5060707;28;20070;-66
2023/12/18 10:22:32;;;;;;;27.23;12.13;;;4.80;99.90;;;;;;5079316;28;21636;-68
2023/12/18 10:24:58;;;;;;;27.98;12.77;;;5.00;99.90;;;;;;5090988;28;20020;-69
2023/12/18 10:27:24;;;;;;;27.63;13.48;;;5.20;99.90;;;;;;5059606;28;20033;-70
2023/12/18 10:29:50;;;;;;;28.85;13.25;;;5.30;99.90;;;;;;5083719;28;20028;-66
2023/12/18 10:32:17;;;;;;;26.75;12.20;;;5.40;99.90;;;;;;5043404;28;20056;-67
2023/12/18 10:34:43;;;;;;;28.20;13.63;;;5.30;99.90;;;;;;5072488;28;20056;-67
2023/12/18 10:37:11;;;;;;;23.88;12.52;;;5.20;99.90;;;;;;5090110;28;20032;-65
2023/12/18 10:39:40;;;;;;;25.42;11.85;;;5.30;99.90;;;;;;5072364;28;20043;-67
2023/12/18 10:42:17;;;;;;;26.70;14.07;;;5.50;99.90;;;;;;5070837;28;20047;-65
2023/12/18 10:44:44;;;;;;;27.35;14.15;;;5.60;99.90;;;;;;5091044;28;20028;-67
2023/12/18 10:47:13;;;;;;;25.73;13.25;;;5.60;99.90;;;;;;5059853;28;20052;-66
2023/12/18 10:49:40;;;;;;;24.45;13.05;;;5.60;99.90;;;;;;5075134;28;20028;-68
2023/12/18 10:52:07;;;;;;;27.60;13.52;;;5.70;99.90;;;;;;5087218;28;20040;-67
2023/12/18 10:54:33;;;;;;;29.15;13.57;;;6.00;99.90;;;;;;5080052;28;20020;-67
2023/12/18 10:57:00;;;;;;;27.80;13.30;;;6.10;99.90;;;;;;5067853;28;20029;-71
2023/12/18 10:59:28;;;;;;;28.05;13.27;;;6.20;99.90;;;;;;5088211;28;20562;-66
2023/12/18 11:01:54;;;;;;;25.50;13.18;;;6.30;99.90;;;;;;5068327;28;20040;-67
2023/12/18 11:04:22;;;;;;;26.35;13.35;;;6.40;99.90;;;;;;5081013;28;20036;-66
2023/12/18 11:06:48;;;;;;;23.27;12.65;;;6.40;99.90;;;;;;5076718;28;20032;-67
2023/12/18 11:09:14;;;;;;;26.35;13.85;;;6.60;99.90;;;;;;5063181;28;20024;-68
2023/12/18 11:11:40;;;;;;;27.67;13.75;;;6.80;99.90;;;;;;5065770;28;20028;-66
2023/12/18 11:14:31;;;;;;;29.92;14.43;;;6.90;99.90;;;;;;5083626;28;20028;-67
2023/12/18 11:17:10;;;;;;;27.80;14.02;;;7.30;99.90;;;;;;5077572;28;20054;-67
2023/12/18 11:19:57;;;;;;;25.33;13.55;;;7.50;99.90;;;;;;5071395;28;20068;-66
2023/12/18 11:22:44;;;;;;;24.42;12.73;;;7.40;99.90;;;;;;5064400;28;20097;-66
2023/12/18 11:25:10;;;;;;;27.15;13.82;;;7.50;99.90;;;;;;5077531;28;20039;-65
2023/12/18 11:27:39;;;;;;;26.85;13.75;;;7.70;99.90;;;;;;5076354;28;20620;-66
2023/12/18 11:30:05;;;;;;;28.45;13.38;;;7.90;99.90;;;;;;5068521;28;20035;-67
2023/12/18 11:32:46;;;;;;;23.77;12.60;;;8.10;99.90;;;;;;5067922;28;20035;-66
2023/12/18 11:35:13;;;;;;;29.08;13.25;;;8.10;99.90;;;;;;5064547;28;20413;-67
2023/12/18 11:37:46;;;;;;;26.25;13.93;;;7.90;99.90;;;;;;5070010;28;20393;-69
2023/12/18 11:40:31;;;;;;;24.27;13.55;;;8.00;99.90;;;;;;5088648;28;20043;-68
2023/12/18 11:43:00;;;;;;;22.92;12.48;;;8.20;99.90;;;;;;5069801;28;20390;-68
2023/12/18 11:45:26;;;;;;;22.90;12.48;;;8.40;99.90;;;;;;5082287;28;20024;-68
2023/12/18 11:47:52;;;;;;;22.90;11.93;;;8.40;99.90;;;;;;5088313;28;20039;-68
2023/12/18 11:50:25;;;;;;;24.17;11.10;;;8.30;99.90;;;;;;5068939;28;20028;-65
2023/12/18 11:52:54;;;;;;;17.90;10.07;;;8.40;99.90;;;;;;5089776;28;20036;-65
2023/12/18 11:55:45;;;;;;;15.27;8.77;;;8.60;99.90;;;;;;5076048;28;20040;-66
2023/12/18 11:58:11;;;;;;;16.55;8.73;;;8.80;99.90;;;;;;5070741;28;20067;-67
2023/12/18 12:00:38;;;;;;;14.70;8.48;;;8.80;99.90;;;;;;5078919;28;20076;-64
2023/12/18 12:03:04;;;;;;;21.25;10.30;;;9.00;99.90;;;;;;5065640;28;20062;-68
2023/12/18 12:05:32;;;;;;;21.05;11.07;;;9.20;99.90;;;;;;5070330;28;20043;-65
2023/12/18 12:07:59;;;;;;;16.92;9.40;;;9.40;99.90;;;;;;5089025;28;20108;-66
2023/12/18 12:10:25;;;;;;;18.80;9.98;;;9.50;99.90;;;;;;5088412;28;20186;-69
2023/12/18 12:12:54;;;;;;;15.00;8.45;;;9.60;99.90;;;;;;5076856;28;20490;-65
2023/12/18 12:15:27;;;;;;;16.95;8.73;;;9.80;99.90;;;;;;5088536;28;20110;-64
2023/12/18 12:18:06;;;;;;;15.18;8.68;;;10.10;99.90;;;;;;5089406;28;20057;-65
2023/12/18 12:20:34;;;;;;;14.90;8.30;;;10.20;99.90;;;;;;5087053;28;20386;-64
2023/12/18 12:23:00;;;;;;;17.73;9.00;;;10.50;99.90;;;;;;5078559;28;20040;-64
2023/12/18 12:25:26;;;;;;;16.30;8.05;;;10.80;99.90;;;;;;5078014;28;20025;-66
2023/12/18 12:27:52;;;;;;;14.32;8.35;;;11.00;99.90;;;;;;5083897;28;20039;-68